Time;durP1;ratioP1;P1;durP2;ratioP2;P2;SDS_P1;SDS_P2;PMS_P1;PMS_P2;Temp;Humidity;BMP_temperature;BMP_pressure;BME280_temperature;BME280_humidity;BME280_pressure;Samples;Min_cycle;Max_cycle;Signal;HPM_P1;HPM_P2
2021/08/24 00:00:58;;;;;;;10.95;9.77;;;14.40;99.90;;;;;;5053547;28;20100;-66
2021/08/24 00:03:23;;;;;;;11.75;10.50;;;14.40;99.90;;;;;;5054071;28;20034;-67
2021/08/24 00:05:49;;;;;;;12.15;10.52;;;14.40;99.90;;;;;;5052935;28;20115;-66
2021/08/24 00:08:16;;;;;;;13.93;10.93;;;14.40;99.90;;;;;;5053317;28;20029;-66
2021/08/24 00:10:56;;;;;;;10.98;9.45;;;14.40;99.90;;;;;;5052554;28;20086;-66
2021/08/24 00:13:24;;;;;;;12.50;10.23;;;14.40;99.90;;;;;;5053462;28;20087;-66
2021/08/24 00:15:51;;;;;;;11.40;9.77;;;14.40;99.90;;;;;;5052656;28;20071;-67
2021/08/24 00:18:18;;;;;;;10.52;9.00;;;14.40;99.90;;;;;;5052926;28;20173;-67
2021/08/24 00:20:47;;;;;;;14.80;10.75;;;14.40;99.90;;;;;;5052361;28;20084;-67
2021/08/24 00:23:16;;;;;;;11.17;10.00;;;14.40;99.90;;;;;;5053052;28;20039;-67
2021/08/24 00:25:42;;;;;;;11.60;9.65;;;14.40;99.90;;;;;;5052644;28;20299;-67
2021/08/24 00:28:08;;;;;;;12.93;9.63;;;14.40;99.90;;;;;;5053180;28;20497;-66
2021/08/24 00:30:38;;;;;;;9.70;8.38;;;14.40;99.90;;;;;;5052765;28;20025;-66
2021/08/24 00:33:04;;;;;;;;;;;14.40;99.90;;;;;;5052912;28;20112;-66
2021/08/24 00:35:30;;;;;;;11.73;9.32;;;14.40;99.90;;;;;;5051477;28;19996;-68
2021/08/24 00:37:55;;;;;;;11.60;9.55;;;14.40;99.90;;;;;;5052265;28;20021;-66
2021/08/24 00:40:22;;;;;;;10.45;9.35;;;14.40;99.90;;;;;;5052561;28;20049;-65
2021/08/24 00:42:49;;;;;;;11.95;10.02;;;14.40;99.90;;;;;;5052109;28;20032;-65
2021/08/24 00:45:15;;;;;;;13.88;10.50;;;14.40;99.90;;;;;;5052759;28;20029;-65
2021/08/24 00:47:45;;;;;;;14.75;9.93;;;14.40;99.90;;;;;;5052204;28;20028;-65
2021/08/24 00:50:32;;;;;;;12.68;9.85;;;14.40;99.90;;;;;;5052139;28;20029;-65
2021/08/24 00:53:01;;;;;;;12.25;9.77;;;14.40;99.90;;;;;;5052019;28;20033;-65
2021/08/24 00:55:28;;;;;;;11.55;10.35;;;14.40;99.90;;;;;;5052286;28;20113;-65
2021/08/24 00:57:59;;;;;;;10.38;9.02;;;14.30;99.90;;;;;;5051575;28;20029;-65
2021/08/24 01:00:27;;;;;;;10.55;9.45;;;14.30;99.90;;;;;;5052835;28;20028;-65
2021/08/24 01:02:57;;;;;;;11.48;9.63;;;14.30;99.90;;;;;;5051501;28;20033;-65
2021/08/24 01:05:23;;;;;;;10.98;8.65;;;14.30;99.90;;;;;;5052107;28;20382;-65
2021/08/24 01:08:01;;;;;;;9.60;8.52;;;14.30;99.90;;;;;;5051608;28;20458;-66
2021/08/24 01:10:38;;;;;;;14.55;8.40;;;14.20;99.90;;;;;;5052305;28;20479;-65
2021/08/24 01:13:28;;;;;;;9.05;8.15;;;14.20;99.90;;;;;;5051431;28;20033;-65
2021/08/24 01:15:54;;;;;;;;;;;14.20;99.90;;;;;;5051750;28;20082;-65
2021/08/24 01:18:38;;;;;;;8.13;7.03;;;14.20;99.90;;;;;;5051810;28;19908;-65
2021/08/24 01:21:33;;;;;;;9.27;6.97;;;14.10;99.90;;;;;;5050820;28;20036;-65
2021/08/24 01:24:01;;;;;;;7.53;6.65;;;14.10;99.90;;;;;;5051410;28;20064;-65
2021/08/24 01:26:48;;;;;;;7.55;6.07;;;14.20;99.90;;;;;;5052051;28;20487;-65
2021/08/24 01:29:41;;;;;;;8.50;6.88;;;14.10;99.90;;;;;;5052069;28;20021;-65
2021/08/24 01:32:07;;;;;;;7.68;6.82;;;14.10;99.90;;;;;;5051424;28;20103;-67
2021/08/24 01:34:51;;;;;;;8.30;6.38;;;14.00;99.90;;;;;;5051529;28;20539;-67
2021/08/24 01:37:29;;;;;;;7.38;5.97;;;14.00;99.90;;;;;;5052113;28;20155;-67
2021/08/24 01:40:04;;;;;;;7.15;6.10;;;14.00;99.90;;;;;;5051100;28;20052;-67
2021/08/24 01:42:31;;;;;;;7.55;6.10;;;13.90;99.90;;;;;;5051054;28;20170;-67
2021/08/24 01:45:14;;;;;;;9.38;5.60;;;13.90;99.90;;;;;;5051171;28;20547;-67
2021/08/24 01:48:00;;;;;;;8.55;5.88;;;13.90;99.90;;;;;;5051803;28;20032;-65
2021/08/24 01:50:55;;;;;;;9.48;5.65;;;13.80;99.90;;;;;;5051422;28;20025;-65
2021/08/24 01:53:31;;;;;;;6.93;4.93;;;13.80;99.90;;;;;;5051513;28;20036;-67
2021/08/24 01:56:01;;;;;;;9.02;5.55;;;13.70;99.90;;;;;;5050957;28;20025;-68
2021/08/24 01:58:34;;;;;;;;;;;13.70;99.90;;;;;;5051619;28;20029;-67
2021/08/24 02:01:03;;;;;;;9.02;5.85;;;13.70;99.90;;;;;;5050512;28;19904;-65
2021/08/24 02:03:36;;;;;;;8.93;7.07;;;13.70;99.90;;;;;;5051473;28;20037;-65
2021/08/24 02:06:24;;;;;;;6.78;5.72;;;13.60;99.90;;;;;;5050713;28;20025;-65
2021/08/24 02:08:55;;;;;;;9.50;6.72;;;13.60;99.90;;;;;;5051061;28;20036;-65
2021/08/24 02:11:22;;;;;;;9.68;6.53;;;13.60;99.90;;;;;;5051669;28;20033;-65
2021/08/24 02:13:50;;;;;;;6.05;5.40;;;13.60;99.90;;;;;;5050325;28;20029;-65
2021/08/24 02:16:20;;;;;;;6.63;5.72;;;13.50;99.90;;;;;;5051209;28;20021;-65
2021/08/24 02:18:52;;;;;;;;;;;13.50;99.90;;;;;;5050686;28;20037;-65
2021/08/24 02:21:27;;;;;;;7.20;5.93;;;13.50;99.90;;;;;;5051452;28;20243;-66
2021/08/24 02:23:56;;;;;;;6.55;5.45;;;13.40;99.90;;;;;;5050600;28;20029;-65
2021/08/24 02:26:26;;;;;;;6.45;5.60;;;13.40;99.90;;;;;;5051361;28;20039;-66
2021/08/24 02:28:55;;;;;;;7.53;5.32;;;13.30;99.90;;;;;;5050362;28;20033;-65
2021/08/24 02:31:53;;;;;;;6.55;5.43;;;13.20;99.90;;;;;;5053272;28;20021;-66
2021/08/24 02:34:40;;;;;;;6.78;5.60;;;13.20;99.90;;;;;;5050052;28;20382;-66
2021/08/24 02:37:16;;;;;;;7.78;5.70;;;13.10;99.90;;;;;;5053837;28;20850;-65
2021/08/24 02:40:03;;;;;;;6.50;5.47;;;13.00;99.90;;;;;;5054767;28;20395;-65
2021/08/24 02:42:38;;;;;;;5.88;5.28;;;13.00;99.90;;;;;;5054621;28;20398;-66
2021/08/24 02:45:10;;;;;;;6.00;5.40;;;12.90;99.90;;;;;;5054473;28;20033;-66
2021/08/24 02:47:38;;;;;;;6.50;5.40;;;12.80;99.90;;;;;;5054911;28;20029;-66
2021/08/24 02:50:05;;;;;;;7.07;6.20;;;12.80;99.90;;;;;;5053867;28;20017;-66
2021/08/24 02:52:34;;;;;;;5.93;5.32;;;12.70;99.90;;;;;;5054420;28;20041;-66
2021/08/24 02:55:01;;;;;;;7.90;6.22;;;12.70;99.90;;;;;;5054199;28;20459;-66
2021/08/24 02:57:27;;;;;;;7.57;6.05;;;12.60;99.90;;;;;;5054860;28;20036;-66
2021/08/24 02:59:53;;;;;;;7.22;5.85;;;12.60;99.90;;;;;;5054352;28;20029;-66
2021/08/24 03:02:19;;;;;;;6.95;5.85;;;12.50;99.90;;;;;;5051333;28;20029;-66
2021/08/24 03:04:45;;;;;;;9.43;7.00;;;12.50;99.90;;;;;;5054371;28;20028;-67
2021/08/24 03:07:26;;;;;;;7.78;6.70;;;12.50;99.90;;;;;;5053310;28;20033;-66
2021/08/24 03:09:53;;;;;;;9.18;6.68;;;12.40;99.90;;;;;;5046787;28;20021;-67
2021/08/24 03:12:29;;;;;;;9.73;6.28;;;12.40;99.90;;;;;;5051624;28;20064;-66
2021/08/24 03:15:12;;;;;;;9.93;8.25;;;12.30;99.90;;;;;;5052503;28;20037;-66
2021/08/24 03:17:47;;;;;;;13.68;7.25;;;12.30;99.90;;;;;;5053640;28;20024;-66
2021/08/24 03:20:16;;;;;;;9.95;7.68;;;12.20;99.90;;;;;;5053069;28;20025;-66
2021/08/24 03:22:43;;;;;;;8.20;6.63;;;12.20;99.90;;;;;;5053500;28;20473;-67
2021/08/24 03:25:12;;;;;;;8.13;7.20;;;12.20;99.90;;;;;;5050658;28;20495;-67
2021/08/24 03:27:41;;;;;;;11.50;8.13;;;12.20;99.90;;;;;;5051088;28;20033;-67
2021/08/24 03:30:10;;;;;;;11.27;7.85;;;12.10;99.90;;;;;;5051175;28;20028;-67
2021/08/24 03:32:36;;;;;;;10.60;8.32;;;12.10;99.90;;;;;;5051673;28;20065;-68
2021/08/24 03:35:03;;;;;;;8.63;7.28;;;12.10;99.90;;;;;;5052031;28;20480;-67
2021/08/24 03:37:29;;;;;;;11.43;7.50;;;12.10;99.90;;;;;;5051564;28;20029;-67
2021/08/24 03:39:55;;;;;;;12.20;9.25;;;12.00;99.90;;;;;;5052493;28;20474;-67
2021/08/24 03:42:21;;;;;;;13.25;8.63;;;12.00;99.90;;;;;;5053358;28;20078;-68
2021/08/24 03:44:47;;;;;;;9.85;8.10;;;12.00;99.90;;;;;;5053766;28;20037;-69
2021/08/24 03:47:13;;;;;;;11.55;8.73;;;12.00;99.90;;;;;;5053633;28;20027;-68
2021/08/24 03:49:40;;;;;;;12.85;8.38;;;12.00;99.90;;;;;;5052825;28;20079;-67
2021/08/24 03:52:06;;;;;;;11.23;8.15;;;11.90;99.90;;;;;;5051951;28;20071;-68
2021/08/24 03:54:32;;;;;;;14.90;10.38;;;11.90;99.90;;;;;;5053078;28;20124;-67
2021/08/24 03:56:58;;;;;;;14.55;10.27;;;11.80;99.90;;;;;;5053060;28;20506;-65
2021/08/24 03:59:24;;;;;;;13.20;9.98;;;11.80;99.90;;;;;;5053607;28;20075;-68
2021/08/24 04:01:50;;;;;;;14.35;9.60;;;11.80;99.90;;;;;;5052163;28;20037;-67
2021/08/24 04:04:15;;;;;;;12.20;10.00;;;11.80;99.90;;;;;;5053553;28;20040;-67
2021/08/24 04:06:42;;;;;;;14.48;9.73;;;11.80;99.90;;;;;;5053546;28;20025;-67
2021/08/24 04:09:08;;;;;;;16.25;9.82;;;11.80;99.90;;;;;;5046845;28;20672;-68
2021/08/24 04:11:34;;;;;;;13.52;9.82;;;11.70;99.90;;;;;;5052908;28;20406;-65
2021/08/24 04:13:59;;;;;;;11.98;9.52;;;11.70;99.90;;;;;;5052633;28;20033;-66
2021/08/24 04:16:25;;;;;;;14.65;11.02;;;11.70;99.90;;;;;;5053064;28;20057;-65
2021/08/24 04:18:51;;;;;;;13.93;10.25;;;11.70;99.90;;;;;;5052561;28;20029;-65
2021/08/24 04:21:18;;;;;;;15.45;10.00;;;11.70;99.90;;;;;;5047165;28;20037;-65
2021/08/24 04:23:45;;;;;;;14.73;10.13;;;11.60;99.90;;;;;;5050576;28;20470;-67
2021/08/24 04:26:12;;;;;;;17.38;10.75;;;11.60;99.90;;;;;;5051172;28;20047;-66
2021/08/24 04:28:39;;;;;;;14.23;11.48;;;11.60;99.90;;;;;;5050221;28;20024;-66
2021/08/24 04:31:06;;;;;;;13.07;10.05;;;11.60;99.90;;;;;;5052782;28;20086;-66
2021/08/24 04:33:33;;;;;;;13.63;10.00;;;11.60;99.90;;;;;;5052707;28;20471;-65
2021/08/24 04:35:59;;;;;;;15.68;11.20;;;11.60;99.90;;;;;;5051800;28;20037;-66
2021/08/24 04:38:25;;;;;;;14.35;10.00;;;11.60;99.90;;;;;;5052849;28;20497;-65
2021/08/24 04:40:51;;;;;;;13.32;9.88;;;11.60;99.90;;;;;;5050977;28;20127;-65
2021/08/24 04:43:18;;;;;;;15.82;11.25;;;11.50;99.90;;;;;;5047843;28;20033;-69
2021/08/24 04:45:44;;;;;;;16.35;11.40;;;11.60;99.90;;;;;;5050344;28;20033;-66
2021/08/24 04:48:11;;;;;;;14.10;11.23;;;11.50;99.90;;;;;;5049822;28;20025;-66
2021/08/24 04:50:37;;;;;;;14.10;11.43;;;11.50;99.90;;;;;;5047186;28;20029;-66
2021/08/24 04:53:03;;;;;;;14.27;11.82;;;11.60;99.90;;;;;;5048899;28;20380;-66
2021/08/24 04:55:29;;;;;;;14.57;11.27;;;11.60;99.90;;;;;;5052088;28;20037;-66
2021/08/24 04:57:55;;;;;;;13.35;10.50;;;11.60;99.90;;;;;;5051309;28;20040;-66
2021/08/24 05:00:21;;;;;;;14.45;11.70;;;11.60;99.90;;;;;;5047918;28;20025;-66
2021/08/24 05:02:47;;;;;;;12.70;10.60;;;11.60;99.90;;;;;;5051731;28;20025;-66
2021/08/24 05:05:13;;;;;;;13.73;10.38;;;11.60;99.90;;;;;;5051760;28;20029;-66
2021/08/24 05:07:38;;;;;;;15.73;12.00;;;11.60;99.90;;;;;;5052325;28;20102;-66
2021/08/24 05:10:06;;;;;;;13.77;10.43;;;11.60;99.90;;;;;;5050967;28;20021;-66
2021/08/24 05:12:32;;;;;;;13.85;10.07;;;11.60;99.90;;;;;;5051034;28;20394;-67
2021/08/24 05:14:58;;;;;;;12.73;10.10;;;11.70;99.90;;;;;;5051643;28;20021;-66
2021/08/24 05:17:24;;;;;;;13.27;10.25;;;11.70;99.90;;;;;;5052507;28;20424;-66
2021/08/24 05:19:49;;;;;;;14.07;10.82;;;11.70;99.90;;;;;;5051689;28;20033;-66
2021/08/24 05:22:15;;;;;;;14.23;11.07;;;11.80;99.90;;;;;;5051721;28;20033;-67
2021/08/24 05:24:41;;;;;;;13.80;10.85;;;11.80;99.90;;;;;;5051952;28;20404;-66
2021/08/24 05:27:07;;;;;;;15.10;10.05;;;11.90;99.90;;;;;;5051664;28;20111;-67
2021/08/24 05:29:33;;;;;;;10.80;9.27;;;11.90;99.90;;;;;;5051258;28;20493;-66
2021/08/24 05:31:59;;;;;;;14.95;10.63;;;12.00;99.90;;;;;;5051529;28;20032;-66
2021/08/24 05:34:25;;;;;;;16.73;10.48;;;12.10;99.90;;;;;;5051551;28;20020;-66
2021/08/24 05:36:50;;;;;;;12.57;10.35;;;12.10;99.90;;;;;;5051317;28;20414;-66
2021/08/24 05:39:16;;;;;;;13.35;10.82;;;12.20;99.90;;;;;;5051048;28;20147;-66
2021/08/24 05:41:42;;;;;;;12.73;10.00;;;12.30;99.90;;;;;;5051887;28;20052;-66
2021/08/24 05:44:08;;;;;;;14.60;10.45;;;12.40;99.90;;;;;;5049606;28;20039;-66
2021/08/24 05:46:34;;;;;;;10.40;9.27;;;12.50;99.90;;;;;;5051596;28;20024;-66
2021/08/24 05:49:00;;;;;;;12.85;9.98;;;12.70;99.90;;;;;;5051454;28;20522;-89
2021/08/24 05:51:26;;;;;;;11.95;10.10;;;12.80;99.90;;;;;;5052654;28;20394;-91
2021/08/24 05:53:52;;;;;;;12.32;9.13;;;12.90;99.90;;;;;;5052437;28;20033;-79
2021/08/24 05:56:21;;;;;;;11.85;9.95;;;13.00;99.90;;;;;;5051960;28;20037;-82
2021/08/24 05:58:47;;;;;;;11.45;9.07;;;13.20;99.90;;;;;;5051791;28;20029;-81
2021/08/24 06:01:19;;;;;;;12.73;8.60;;;13.40;99.90;;;;;;5050586;28;20029;-79
2021/08/24 06:03:44;;;;;;;13.80;8.98;;;13.60;99.90;;;;;;5050984;28;20036;-81
2021/08/24 06:06:31;;;;;;;9.90;8.27;;;13.60;99.90;;;;;;5050383;28;20032;-83
2021/08/24 06:08:58;;;;;;;10.00;8.98;;;13.60;99.90;;;;;;5050940;28;20033;-82
2021/08/24 06:11:31;;;;;;;12.10;7.28;;;13.70;99.90;;;;;;5046706;28;20116;-86
2021/08/24 06:13:58;;;;;;;9.32;7.38;;;13.90;99.90;;;;;;5039088;28;20041;-89
2021/08/24 06:16:25;;;;;;;11.50;8.18;;;13.90;99.90;;;;;;5049356;28;20025;-87
2021/08/24 06:18:51;;;;;;;9.57;7.35;;;13.90;99.90;;;;;;5051873;28;20025;-84
2021/08/24 06:21:17;;;;;;;8.35;6.82;;;13.90;99.90;;;;;;5051305;28;20032;-87
2021/08/24 06:23:43;;;;;;;9.27;7.07;;;13.90;99.90;;;;;;5051875;28;20025;-86
2021/08/24 06:26:09;;;;;;;8.52;6.95;;;13.80;99.90;;;;;;5051400;28;20069;-85
2021/08/24 06:28:35;;;;;;;10.88;6.95;;;13.90;99.90;;;;;;5051238;28;20036;-87
2021/08/24 06:31:01;;;;;;;7.80;6.82;;;13.90;99.90;;;;;;5065474;28;20029;-87
2021/08/24 06:33:30;;;;;;;6.63;5.55;;;13.90;99.90;;;;;;5069680;28;20040;-84
2021/08/24 06:35:56;;;;;;;7.10;5.72;;;14.00;99.90;;;;;;5050668;28;20037;-85
2021/08/24 06:38:22;;;;;;;8.88;6.15;;;14.00;99.90;;;;;;5073019;28;20033;-86
2021/08/24 06:40:47;;;;;;;7.45;6.65;;;14.10;99.90;;;;;;5075297;28;20081;-86
2021/08/24 06:43:15;;;;;;;6.18;5.28;;;14.20;99.90;;;;;;5069301;28;20099;-87
2021/08/24 06:45:41;;;;;;;9.23;4.70;;;14.30;99.90;;;;;;5050513;28;20029;-87
2021/08/24 06:48:07;;;;;;;8.75;4.72;;;14.40;99.90;;;;;;5050317;28;20025;-81
2021/08/24 06:50:33;;;;;;;12.13;6.00;;;14.50;99.90;;;;;;5051351;28;20029;-87
2021/08/24 06:52:59;;;;;;;6.45;5.57;;;14.50;99.90;;;;;;5050328;28;20104;-81
2021/08/24 06:55:26;;;;;;;7.85;5.88;;;14.50;99.90;;;;;;5051196;28;20024;-86
2021/08/24 06:57:54;;;;;;;7.53;5.68;;;14.40;99.90;;;;;;5047774;28;20481;-86
2021/08/24 07:00:23;;;;;;;10.85;5.68;;;14.40;99.90;;;;;;5048299;28;20029;-87
2021/08/24 07:02:49;;;;;;;8.50;5.80;;;14.40;99.90;;;;;;5052552;28;20175;-74
2021/08/24 07:05:18;;;;;;;8.05;4.93;;;14.40;99.90;;;;;;5050551;28;20029;-88
2021/08/24 07:07:43;;;;;;;6.80;4.97;;;14.50;99.90;;;;;;5051588;28;20029;-87
2021/08/24 07:10:11;;;;;;;7.63;5.03;;;14.60;99.90;;;;;;5048920;28;20060;-87
2021/08/24 07:12:37;;;;;;;8.93;4.40;;;14.60;99.90;;;;;;5050607;28;20037;-87
2021/08/24 07:15:05;;;;;;;5.93;4.97;;;14.60;99.90;;;;;;5049041;28;20474;-86
2021/08/24 07:17:30;;;;;;;6.57;4.40;;;14.60;99.90;;;;;;5051706;28;20082;-86
2021/08/24 07:19:56;;;;;;;8.95;5.20;;;14.50;99.90;;;;;;5053416;28;20032;-84
2021/08/24 07:22:22;;;;;;;6.88;4.72;;;14.40;99.90;;;;;;5054302;28;20107;-87
2021/08/24 07:24:48;;;;;;;5.95;4.22;;;14.40;99.90;;;;;;5053285;28;20025;-86
2021/08/24 07:27:13;;;;;;;7.38;4.65;;;14.40;99.90;;;;;;5053656;28;20067;-87
2021/08/24 07:29:39;;;;;;;7.38;4.18;;;14.40;99.90;;;;;;5053271;28;20473;-86
2021/08/24 07:32:06;;;;;;;7.78;4.93;;;14.40;99.90;;;;;;5053679;28;20075;-85
2021/08/24 07:34:31;;;;;;;8.38;5.10;;;14.40;99.90;;;;;;5054376;28;20025;-65
2021/08/24 07:36:57;;;;;;;9.20;5.55;;;14.40;99.90;;;;;;5054145;28;20378;-65
2021/08/24 07:39:23;;;;;;;8.95;5.32;;;14.40;99.90;;;;;;5052416;28;20065;-64
2021/08/24 07:41:48;;;;;;;6.05;4.30;;;14.50;99.90;;;;;;5053541;28;20033;-65
2021/08/24 07:44:14;;;;;;;5.47;4.25;;;14.50;99.90;;;;;;5053041;28;20060;-65
2021/08/24 07:46:40;;;;;;;9.52;4.60;;;14.50;99.90;;;;;;5054119;28;20036;-66
2021/08/24 07:49:05;;;;;;;7.82;4.55;;;14.60;99.90;;;;;;5052997;28;20059;-65
2021/08/24 07:51:31;;;;;;;8.32;5.15;;;14.70;99.90;;;;;;5054053;28;20025;-65
2021/08/24 07:53:59;;;;;;;7.15;5.30;;;14.80;99.90;;;;;;5053493;28;20032;-65
2021/08/24 07:56:25;;;;;;;5.88;4.10;;;14.80;99.90;;;;;;5053430;28;20595;-65
2021/08/24 07:58:51;;;;;;;10.07;4.88;;;15.00;99.90;;;;;;5053628;28;20043;-65
2021/08/24 08:01:17;;;;;;;6.55;4.15;;;15.10;99.90;;;;;;5052736;28;20036;-66
2021/08/24 08:03:42;;;;;;;6.00;4.32;;;15.20;99.90;;;;;;5053620;28;20029;-66
2021/08/24 08:06:08;;;;;;;7.60;4.50;;;15.50;99.90;;;;;;5052879;28;20083;-66
2021/08/24 08:08:34;;;;;;;8.25;4.55;;;15.60;99.90;;;;;;5053968;28;20025;-66
2021/08/24 08:10:59;;;;;;;6.05;4.60;;;15.60;99.90;;;;;;5053025;28;20405;-66
2021/08/24 08:13:26;;;;;;;4.97;4.22;;;15.50;99.90;;;;;;5053071;28;20033;-66
2021/08/24 08:15:52;;;;;;;7.68;4.40;;;15.50;99.90;;;;;;5053387;28;20029;-66
2021/08/24 08:18:18;;;;;;;6.53;4.60;;;15.70;99.90;;;;;;5052353;28;20024;-66
2021/08/24 08:20:44;;;;;;;5.53;3.78;;;15.80;99.90;;;;;;5053554;28;20033;-66
2021/08/24 08:23:13;;;;;;;6.88;3.88;;;15.80;99.90;;;;;;5052418;28;20075;-66
2021/08/24 08:25:39;;;;;;;7.90;4.03;;;15.80;99.90;;;;;;5053308;28;20065;-66
2021/08/24 08:28:05;;;;;;;4.88;3.85;;;15.80;99.90;;;;;;5051834;28;20051;-66
2021/08/24 08:30:32;;;;;;;5.03;3.75;;;15.90;99.90;;;;;;5051818;28;20029;-66
2021/08/24 08:32:59;;;;;;;5.65;3.75;;;15.90;99.90;;;;;;5053000;28;20099;-66
2021/08/24 08:35:25;;;;;;;4.95;3.83;;;16.00;99.90;;;;;;5053117;28;20035;-66
2021/08/24 08:37:51;;;;;;;6.55;3.65;;;16.20;99.90;;;;;;5053227;28;20021;-66
2021/08/24 08:40:25;;;;;;;7.68;3.53;;;16.30;99.90;;;;;;5051735;28;20048;-66
2021/08/24 08:43:17;;;;;;;5.15;3.60;;;16.40;99.90;;;;;;5051895;28;20116;-66
2021/08/24 08:45:47;;;;;;;10.20;3.70;;;16.50;99.90;;;;;;5032934;28;20096;-67
2021/08/24 08:48:18;;;;;;;4.10;3.20;;;16.80;99.90;;;;;;5032030;28;20033;-66
2021/08/24 08:51:48;;;;;;;7.22;4.32;;;17.00;99.90;;;;;;5032895;28;20056;-67
2021/08/24 08:54:38;;;;;;;8.10;4.53;;;17.10;99.90;;;;;;5009701;28;20089;-66
2021/08/24 08:57:18;;;;;;;6.07;4.28;;;16.90;99.90;;;;;;5010156;28;20038;-66
2021/08/24 08:59:57;;;;;;;5.20;3.70;;;16.80;99.90;;;;;;5027271;28;20044;-67
2021/08/24 09:02:50;;;;;;;5.20;4.10;;;16.70;99.90;;;;;;5032965;28;20045;-66
2021/08/24 09:05:22;;;;;;;7.05;4.10;;;16.60;99.90;;;;;;5032526;28;20029;-66
2021/08/24 09:07:54;;;;;;;5.10;4.00;;;16.50;99.90;;;;;;5033135;28;20387;-67
2021/08/24 09:10:51;;;;;;;6.13;4.20;;;16.50;99.90;;;;;;5044565;28;20036;-66
2021/08/24 09:13:42;;;;;;;6.72;4.22;;;16.40;99.90;;;;;;5051697;28;20028;-66
2021/08/24 09:16:16;;;;;;;;;;;16.40;99.90;;;;;;5052268;28;20025;-66
2021/08/24 09:18:45;;;;;;;4.63;3.65;;;16.40;99.90;;;;;;5052434;28;20361;-66
2021/08/24 09:21:21;;;;;;;5.90;3.42;;;16.40;99.90;;;;;;5051844;28;20040;-66
2021/08/24 09:23:46;;;;;;;4.97;3.85;;;16.40;99.90;;;;;;5052509;28;20029;-66
2021/08/24 09:26:30;;;;;;;5.32;3.10;;;16.40;99.90;;;;;;5051732;28;20050;-66
2021/08/24 09:28:56;;;;;;;6.60;3.22;;;16.40;99.90;;;;;;5052637;28;20478;-66
2021/08/24 09:31:23;;;;;;;5.90;3.35;;;16.50;99.90;;;;;;5051700;28;20037;-66
2021/08/24 09:33:50;;;;;;;7.60;3.38;;;16.50;99.90;;;;;;5052620;28;20159;-66
2021/08/24 09:36:18;;;;;;;5.47;3.63;;;16.50;99.90;;;;;;5052111;28;20060;-66
2021/08/24 09:38:49;;;;;;;4.45;3.40;;;16.60;99.90;;;;;;5052110;28;20056;-66
2021/08/24 09:41:38;;;;;;;5.75;4.30;;;16.60;99.90;;;;;;5050436;28;20060;-65
2021/08/24 09:44:25;;;;;;;5.82;3.65;;;16.50;99.90;;;;;;5051723;28;20029;-65
2021/08/24 09:47:01;;;;;;;6.78;3.30;;;16.50;99.90;;;;;;5052002;28;20107;-64
2021/08/24 09:49:41;;;;;;;4.68;3.90;;;16.50;99.90;;;;;;5052204;28;20462;-67
2021/08/24 09:52:12;;;;;;;5.85;3.55;;;16.60;99.90;;;;;;5051773;28;20028;-69
2021/08/24 09:54:48;;;;;;;4.32;3.20;;;16.60;99.90;;;;;;5052422;28;20033;-67
2021/08/24 09:57:28;;;;;;;5.25;3.35;;;16.80;99.90;;;;;;5051421;28;20378;-67
2021/08/24 09:59:57;;;;;;;4.22;3.28;;;17.00;99.90;;;;;;5052215;28;20112;-68
2021/08/24 10:02:41;;;;;;;4.80;3.40;;;17.10;99.90;;;;;;5051579;28;20036;-67
2021/08/24 10:05:14;;;;;;;3.60;3.03;;;17.30;99.90;;;;;;5051527;28;20274;-68
2021/08/24 10:07:44;;;;;;;4.72;3.47;;;17.40;99.90;;;;;;5052264;28;20025;-67
2021/08/24 10:10:28;;;;;;;4.97;3.35;;;17.30;99.90;;;;;;5051576;28;20048;-67
2021/08/24 10:12:55;;;;;;;5.45;3.00;;;17.10;99.90;;;;;;5051633;28;20059;-68
2021/08/24 10:15:31;;;;;;;5.88;3.38;;;16.90;99.90;;;;;;5051105;28;20515;-67
2021/08/24 10:18:04;;;;;;;4.05;3.30;;;16.90;99.90;;;;;;5052340;28;20100;-67
2021/08/24 10:20:53;;;;;;;4.63;3.38;;;16.90;99.90;;;;;;5052086;28;20098;-67
2021/08/24 10:23:37;;;;;;;4.63;3.50;;;17.00;99.90;;;;;;5051357;28;20382;-67
2021/08/24 10:26:09;;;;;;;5.43;3.40;;;16.90;99.90;;;;;;5051123;28;20433;-67
2021/08/24 10:28:47;;;;;;;5.85;3.20;;;16.90;99.90;;;;;;5051953;28;20043;-67
2021/08/24 10:31:33;;;;;;;3.85;2.88;;;17.00;99.90;;;;;;5051167;28;20029;-68
2021/08/24 10:34:10;;;;;;;4.75;3.58;;;17.00;99.90;;;;;;5051946;28;20033;-67
2021/08/24 10:36:41;;;;;;;3.83;3.42;;;17.10;99.90;;;;;;5052001;28;20446;-68
2021/08/24 10:39:20;;;;;;;3.60;2.92;;;17.10;99.90;;;;;;5051612;28;20021;-68
2021/08/24 10:42:04;;;;;;;5.53;3.67;;;17.20;99.90;;;;;;5051320;28;20045;-68
2021/08/24 10:44:46;;;;;;;7.25;3.78;;;17.30;99.90;;;;;;5051769;28;20041;-67
2021/08/24 10:47:14;;;;;;;6.35;3.78;;;17.30;99.90;;;;;;5051008;28;20055;-67
2021/08/24 10:49:40;;;;;;;3.80;3.40;;;17.40;99.90;;;;;;5051755;28;20025;-67
2021/08/24 10:52:43;;;;;;;4.68;3.45;;;17.40;99.90;;;;;;5052491;28;20074;-67
2021/08/24 10:55:09;;;;;;;7.28;4.03;;;17.40;99.90;;;;;;5054854;28;20032;-68
2021/08/24 10:57:57;;;;;;;5.03;3.38;;;17.60;99.90;;;;;;5055677;28;20371;-68
2021/08/24 11:00:23;;;;;;;3.40;2.90;;;17.80;99.90;;;;;;5054862;28;20025;-68
2021/08/24 11:03:13;;;;;;;3.70;3.22;;;17.90;99.90;;;;;;5055228;28;20112;-68
2021/08/24 11:05:57;;;;;;;4.47;3.13;;;17.90;99.90;;;;;;5055816;28;20037;-68
2021/08/24 11:08:39;;;;;;;4.35;3.45;;;17.90;99.90;;;;;;5054625;28;20029;-68
2021/08/24 11:11:22;;;;;;;3.55;3.08;;;18.00;99.90;;;;;;5054771;28;20030;-68
2021/08/24 11:14:20;;;;;;;4.70;3.17;;;18.00;99.90;;;;;;5035677;28;20040;-68
2021/08/24 11:17:03;;;;;;;4.32;3.35;;;17.90;99.90;;;;;;5035062;28;20079;-67
2021/08/24 11:20:13;;;;;;;3.30;3.00;;;17.80;99.90;;;;;;5035191;28;20037;-68
2021/08/24 11:23:18;;;;;;;5.18;3.58;;;17.70;99.90;;;;;;5024565;28;20049;-67
2021/08/24 11:25:48;;;;;;;3.55;3.25;;;17.80;99.90;;;;;;5012849;28;20052;-68
2021/08/24 11:28:44;;;;;;;5.65;3.13;;;17.90;99.90;;;;;;5030293;28;20364;-68
2021/08/24 11:31:25;;;;;;;6.68;3.22;;;18.00;99.90;;;;;;5034131;28;20033;-67
2021/08/24 11:34:01;;;;;;;5.22;3.03;;;18.00;99.90;;;;;;5034732;28;20099;-67
2021/08/24 11:36:35;;;;;;;3.55;3.25;;;18.00;99.90;;;;;;5034484;28;20029;-67
2021/08/24 11:39:28;;;;;;;5.60;3.08;;;18.00;99.90;;;;;;5034471;28;20030;-68
2021/08/24 11:42:00;;;;;;;4.65;3.65;;;18.00;99.90;;;;;;5039961;28;20087;-68
2021/08/24 11:44:37;;;;;;;4.95;3.25;;;17.90;99.90;;;;;;5053869;28;20497;-68
2021/08/24 11:47:09;;;;;;;5.88;3.58;;;18.00;99.90;;;;;;5054729;28;20055;-68
2021/08/24 11:50:13;;;;;;;3.65;2.92;;;17.90;99.90;;;;;;5054064;28;20624;-68
2021/08/24 11:53:05;;;;;;;3.83;3.22;;;17.90;99.90;;;;;;5054534;28;20032;-68
2021/08/24 11:55:37;;;;;;;5.35;3.42;;;18.10;99.90;;;;;;5054404;28;20474;-67
2021/08/24 11:58:14;;;;;;;4.95;3.30;;;18.20;99.90;;;;;;5054027;28;20070;-67
2021/08/24 12:00:41;;;;;;;5.97;3.03;;;18.20;99.90;;;;;;5054121;28;20505;-67
2021/08/24 12:03:09;;;;;;;4.38;3.75;;;18.20;99.90;;;;;;5052202;28;20025;-66
2021/08/24 12:05:43;;;;;;;6.93;3.15;;;18.30;99.90;;;;;;5054456;28;20041;-65
2021/08/24 12:08:20;;;;;;;3.80;3.38;;;18.40;99.90;;;;;;5053433;28;20390;-67
2021/08/24 12:10:51;;;;;;;4.72;3.20;;;18.70;99.90;;;;;;5054205;28;20033;-66
2021/08/24 12:13:37;;;;;;;5.38;3.38;;;18.80;99.90;;;;;;5052990;28;20470;-66
2021/08/24 12:16:30;;;;;;;4.55;3.60;;;19.00;99.90;;;;;;5054035;28;20021;-67
2021/08/24 12:19:17;;;;;;;6.88;3.50;;;19.20;99.90;;;;;;5048019;28;20445;-66
2021/08/24 12:22:12;;;;;;;4.55;3.70;;;19.40;99.90;;;;;;5053799;28;20021;-67
2021/08/24 12:24:54;;;;;;;4.40;3.80;;;19.20;99.90;;;;;;5053875;28;20059;-66
2021/08/24 12:27:19;;;;;;;4.25;3.75;;;19.10;99.80;;;;;;5052976;28;20078;-67
2021/08/24 12:29:45;;;;;;;5.07;3.55;;;18.70;99.90;;;;;;5053627;28;20032;-67
2021/08/24 12:32:18;;;;;;;4.32;3.83;;;18.70;99.90;;;;;;5053092;28;20025;-67
2021/08/24 12:34:48;;;;;;;5.47;4.10;;;18.70;99.90;;;;;;5053502;28;20026;-67
2021/08/24 12:37:20;;;;;;;6.65;4.00;;;18.60;99.90;;;;;;5053117;28;20064;-66
2021/08/24 12:39:49;;;;;;;7.57;3.88;;;18.40;99.90;;;;;;5053202;28;20063;-67
2021/08/24 12:42:30;;;;;;;5.93;3.72;;;18.20;99.90;;;;;;5052217;28;20036;-67
2021/08/24 12:44:58;;;;;;;4.22;3.83;;;18.10;99.90;;;;;;5053336;28;20048;-67
2021/08/24 12:47:28;;;;;;;5.55;3.92;;;18.00;99.90;;;;;;5052844;28;20025;-67
2021/08/24 12:49:55;;;;;;;7.70;3.63;;;18.00;99.90;;;;;;5053176;28;20032;-66
2021/08/24 12:52:27;;;;;;;7.45;4.47;;;18.00;99.90;;;;;;5052373;28;20263;-66
2021/08/24 12:55:11;;;;;;;4.72;3.80;;;17.90;99.90;;;;;;5053378;28;20029;-67
2021/08/24 12:57:43;;;;;;;4.72;3.60;;;17.90;99.90;;;;;;5052991;28;20107;-67
2021/08/24 13:00:27;;;;;;;4.93;4.05;;;17.70;99.90;;;;;;5052582;28;20424;-67
2021/08/24 13:02:55;;;;;;;7.43;4.20;;;17.60;99.90;;;;;;5053064;28;20442;-67
2021/08/24 13:05:30;;;;;;;4.30;3.47;;;17.60;99.90;;;;;;5052018;28;20029;-67
2021/08/24 13:08:19;;;;;;;4.00;3.38;;;17.70;99.90;;;;;;5052918;28;20029;-67